createdAt,value
2019-01-17T00:00:01.199Z,72.55
2019-01-17T00:02:38.118Z,72.56
2019-01-17T00:05:18.140Z,72.55
2019-01-17T00:07:51.862Z,72.56
2019-01-17T00:10:22.559Z,72.60
2019-01-17T00:12:50.476Z,72.63
2019-01-17T00:15:35.382Z,72.64
2019-01-17T00:18:21.100Z,72.63
2019-01-17T00:20:49.250Z,72.67
2019-01-17T00:23:33.709Z,72.66
2019-01-17T00:26:07.939Z,72.64
2019-01-17T00:28:41.804Z,72.67
2019-01-17T00:31:09.908Z,72.65
2019-01-17T00:33:37.862Z,72.70
2019-01-17T00:36:08.611Z,72.66
2019-01-17T00:38:42.385Z,72.67
2019-01-17T00:41:12.985Z,72.71
2019-01-17T00:43:43.820Z,72.71
2019-01-17T00:46:11.730Z,72.65
2019-01-17T00:48:45.840Z,72.66
2019-01-17T00:51:13.791Z,72.70
2019-01-17T00:53:41.702Z,72.71
2019-01-17T00:56:09.876Z,72.70
2019-01-17T00:58:43.722Z,72.65
2019-01-17T01:01:20.713Z,72.74
2019-01-17T01:03:57.787Z,72.73
2019-01-17T01:06:43.741Z,72.72
2019-01-17T01:09:14.321Z,72.69
2019-01-17T01:11:51.042Z,72.76
2019-01-17T01:14:18.905Z,72.80
2019-01-17T01:16:59.301Z,72.74
2019-01-17T01:19:30.180Z,72.74
2019-01-17T01:22:14.606Z,72.73
2019-01-17T01:24:48.505Z,72.78
2019-01-17T01:27:19.769Z,72.72
2019-01-17T01:29:50.355Z,72.71
2019-01-17T01:32:21.315Z,72.78
2019-01-17T01:35:07.085Z,72.78
2019-01-17T01:37:51.585Z,72.84
2019-01-17T01:40:22.393Z,72.84
2019-01-17T01:42:50.404Z,72.81
2019-01-17T01:45:34.761Z,72.75
2019-01-17T01:48:05.664Z,72.85
2019-01-17T01:50:39.395Z,72.88
2019-01-17T01:53:05.401Z,72.82
2019-01-17T01:55:31.408Z,72.77
2019-01-17T01:57:57.635Z,72.75
2019-01-17T02:00:23.648Z,72.72
2019-01-17T02:02:49.615Z,72.77
2019-01-17T02:05:15.961Z,72.81
2019-01-17T02:07:42.096Z,72.82
2019-01-17T02:10:09.698Z,72.82
2019-01-17T02:12:35.945Z,72.85
2019-01-17T02:15:03.949Z,72.86
2019-01-17T02:17:30.033Z,72.75
2019-01-17T02:19:56.455Z,72.69
2019-01-17T02:22:22.460Z,72.79
2019-01-17T02:24:48.485Z,72.82
2019-01-17T02:27:14.609Z,72.85
2019-01-17T02:29:40.730Z,72.85
2019-01-17T02:32:06.771Z,72.94
2019-01-17T02:34:32.954Z,72.91
2019-01-17T02:36:59.082Z,72.89
2019-01-17T02:39:25.012Z,72.93
2019-01-17T02:41:51.280Z,72.90
2019-01-17T02:44:17.411Z,72.92
2019-01-17T02:46:43.566Z,72.94
2019-01-17T02:49:09.691Z,72.92
2019-01-17T02:51:35.633Z,72.88
2019-01-17T02:54:01.750Z,72.84
2019-01-17T02:56:27.926Z,72.88
2019-01-17T02:58:53.878Z,72.88
2019-01-17T03:01:19.963Z,72.89
2019-01-17T03:03:46.153Z,72.89
2019-01-17T03:06:12.070Z,72.92
2019-01-17T03:08:38.190Z,72.89
2019-01-17T03:11:04.594Z,73.02
2019-01-17T03:13:30.603Z,72.93
2019-01-17T03:15:56.831Z,72.97
2019-01-17T03:18:23.147Z,72.88
2019-01-17T03:20:49.198Z,72.86
2019-01-17T03:23:15.191Z,72.75
2019-01-17T03:25:41.453Z,72.77
2019-01-17T03:28:07.564Z,72.79
2019-01-17T03:30:33.611Z,72.90
2019-01-17T03:32:59.777Z,72.96
2019-01-17T03:35:25.891Z,72.91
2019-01-17T03:37:51.908Z,72.98
2019-01-17T03:40:18.277Z,72.95
2019-01-17T03:42:44.401Z,72.95
2019-01-17T03:45:12.132Z,73.05
2019-01-17T03:47:38.518Z,73.02
2019-01-17T03:50:07.977Z,73.09
2019-01-17T03:52:34.071Z,73.09
2019-01-17T03:55:00.334Z,73.08
2019-01-17T03:57:26.558Z,73.01
2019-01-17T03:59:52.665Z,72.98
2019-01-17T04:02:18.857Z,72.89
2019-01-17T04:04:44.788Z,72.80
2019-01-17T04:07:10.805Z,72.87
2019-01-17T04:09:37.175Z,72.94
2019-01-17T04:12:03.220Z,73.05
2019-01-17T04:14:29.536Z,73.03
2019-01-17T04:16:55.618Z,73.05
2019-01-17T04:19:21.557Z,73.05
2019-01-17T04:21:47.525Z,72.98
2019-01-17T04:24:13.563Z,73.16
2019-01-17T04:26:39.614Z,73.04
2019-01-17T04:29:05.619Z,73.00
2019-01-17T04:31:31.648Z,73.12
2019-01-17T04:33:57.597Z,73.08
2019-01-17T04:36:23.644Z,73.15
2019-01-17T04:38:50.070Z,73.26
2019-01-17T04:41:15.971Z,73.16
2019-01-17T04:43:41.912Z,73.11
2019-01-17T04:46:08.256Z,73.05
2019-01-17T04:48:34.346Z,73.06
2019-01-17T04:51:00.365Z,73.06
2019-01-17T04:53:26.482Z,73.03
2019-01-17T04:55:52.573Z,73.01
2019-01-17T04:58:18.506Z,73.19
2019-01-17T05:00:44.819Z,73.15
2019-01-17T05:03:10.861Z,73.21
2019-01-17T05:05:36.767Z,73.25
2019-01-17T05:08:03.097Z,73.31
2019-01-17T05:10:29.199Z,73.22
2019-01-17T05:12:55.344Z,73.30
2019-01-17T05:15:21.559Z,73.37
2019-01-17T05:17:47.645Z,73.34
2019-01-17T05:20:14.553Z,73.46
2019-01-17T05:22:40.619Z,73.41
2019-01-17T05:25:12.485Z,73.33
2019-01-17T05:27:35.793Z,73.20
2019-01-17T05:30:04.193Z,73.18
2019-01-17T05:32:36.504Z,73.08
2019-01-17T05:34:58.152Z,73.12
2019-01-17T05:37:24.319Z,73.14
2019-01-17T05:39:50.249Z,73.11
2019-01-17T05:42:16.375Z,73.10
2019-01-17T05:44:42.579Z,73.29
2019-01-17T05:47:08.513Z,73.26
2019-01-17T05:49:34.691Z,73.29
2019-01-17T05:52:00.995Z,73.29
2019-01-17T05:54:26.998Z,73.24
2019-01-17T05:56:52.944Z,73.25
2019-01-17T05:59:18.928Z,73.16
2019-01-17T06:01:44.905Z,73.41
2019-01-17T06:04:11.007Z,73.41
2019-01-17T06:06:37.309Z,73.07
2019-01-17T06:09:05.944Z,73.04
2019-01-17T06:11:31.868Z,72.98
2019-01-17T06:13:58.014Z,72.94
2019-01-17T06:16:24.018Z,73.00
2019-01-17T06:18:50.161Z,73.04
2019-01-17T06:21:16.223Z,73.06
2019-01-17T06:23:42.230Z,72.80
2019-01-17T06:26:08.278Z,72.78
2019-01-17T06:28:34.398Z,72.90
2019-01-17T06:31:00.425Z,72.90
2019-01-17T06:33:26.515Z,72.87
2019-01-17T06:35:52.570Z,72.88
2019-01-17T06:38:18.455Z,72.82
2019-01-17T06:40:44.632Z,72.85
2019-01-17T06:43:11.116Z,72.97
2019-01-17T06:45:37.239Z,72.82
2019-01-17T06:48:03.348Z,72.91
2019-01-17T06:50:29.666Z,72.94
2019-01-17T06:52:55.985Z,72.96
2019-01-17T06:55:21.878Z,72.82
2019-01-17T06:57:48.229Z,72.79
2019-01-17T07:00:15.875Z,72.68
2019-01-17T07:02:42.210Z,72.71
2019-01-17T07:05:10.692Z,72.70
2019-01-17T07:07:36.834Z,72.67
2019-01-17T07:10:06.152Z,72.60
2019-01-17T07:12:32.378Z,72.67
2019-01-17T07:14:58.297Z,72.63
2019-01-17T07:17:24.201Z,72.62
2019-01-17T07:19:50.427Z,72.57
2019-01-17T07:22:16.439Z,72.67
2019-01-17T07:24:42.476Z,72.74
2019-01-17T07:27:08.702Z,72.68
2019-01-17T07:29:34.798Z,72.65
2019-01-17T07:32:00.926Z,72.56
2019-01-17T07:34:26.935Z,72.51
2019-01-17T07:36:52.883Z,72.50
2019-01-17T07:39:18.905Z,72.53
2019-01-17T07:41:45.077Z,72.52
2019-01-17T07:44:11.110Z,72.45
2019-01-17T07:46:37.231Z,72.56
2019-01-17T07:49:03.483Z,72.58
2019-01-17T07:51:29.593Z,72.55
2019-01-17T07:53:55.508Z,72.53
2019-01-17T07:56:21.798Z,72.54
2019-01-17T07:58:47.847Z,72.51
2019-01-17T08:01:15.106Z,72.50
2019-01-17T08:03:41.270Z,72.49
2019-01-17T08:06:07.432Z,72.47
2019-01-17T08:08:33.327Z,72.45
2019-01-17T08:10:59.491Z,72.50
2019-01-17T08:13:25.527Z,72.42
2019-01-17T08:15:51.648Z,72.37
2019-01-17T08:18:18.818Z,72.37
2019-01-17T08:20:44.988Z,72.34
2019-01-17T08:23:11.303Z,72.36
2019-01-17T08:25:37.427Z,72.47
2019-01-17T08:28:03.550Z,72.37
2019-01-17T08:30:29.697Z,72.42
2019-01-17T08:32:56.087Z,72.30
2019-01-17T08:35:22.299Z,72.35
2019-01-17T08:37:48.428Z,72.24
2019-01-17T08:40:20.951Z,72.36
2019-01-17T08:42:47.193Z,72.43
2019-01-17T08:45:13.512Z,72.29
2019-01-17T08:47:39.604Z,72.29
2019-01-17T08:50:09.329Z,72.32
2019-01-17T08:52:35.439Z,72.37
2019-01-17T08:55:01.871Z,72.33
2019-01-17T08:57:27.779Z,72.25
2019-01-17T08:59:53.836Z,72.22
2019-01-17T09:02:19.940Z,72.27
2019-01-17T09:04:45.852Z,72.26
2019-01-17T09:07:11.975Z,72.30
2019-01-17T09:09:38.163Z,72.29
2019-01-17T09:12:04.270Z,72.40
2019-01-17T09:14:30.445Z,72.42
2019-01-17T09:16:57.676Z,72.27
2019-01-17T09:19:23.596Z,72.24
2019-01-17T09:21:49.559Z,72.27
2019-01-17T09:24:15.738Z,72.15
2019-01-17T09:26:41.657Z,72.16
2019-01-17T09:29:07.805Z,72.22
2019-01-17T09:31:34.139Z,72.08
2019-01-17T09:34:00.035Z,72.12
2019-01-17T09:36:26.059Z,72.15
2019-01-17T09:38:52.208Z,72.24
2019-01-17T09:41:18.303Z,72.29
2019-01-17T09:43:44.326Z,72.27
2019-01-17T09:46:10.611Z,72.28
2019-01-17T09:48:36.558Z,72.28
2019-01-17T09:51:02.780Z,72.33
2019-01-17T09:53:29.017Z,72.32
2019-01-17T09:55:54.943Z,72.28
2019-01-17T09:58:20.849Z,72.29
2019-01-17T10:00:47.127Z,72.17
2019-01-17T10:03:13.190Z,72.10
2019-01-17T10:05:39.221Z,72.11
2019-01-17T10:08:05.543Z,72.13
2019-01-17T10:10:31.632Z,72.10
2019-01-17T10:12:57.667Z,72.19
2019-01-17T10:15:42.800Z,72.08
2019-01-17T10:18:29.369Z,72.05
2019-01-17T10:21:05.317Z,72.06
2019-01-17T10:23:41.080Z,72.01
2019-01-17T10:26:13.691Z,72.11
2019-01-17T10:28:49.433Z,72.09
2019-01-17T10:31:31.822Z,72.07
2019-01-17T10:34:10.442Z,72.06
2019-01-17T10:36:49.409Z,72.12
2019-01-17T10:39:43.462Z,72.07
2019-01-17T10:42:18.730Z,72.10
2019-01-17T10:44:51.487Z,72.09
2019-01-17T10:47:24.254Z,72.01
2019-01-17T10:50:02.363Z,72.06
2019-01-17T10:52:48.975Z,72.16
2019-01-17T10:55:24.442Z,72.04
2019-01-17T10:57:54.423Z,72.07
2019-01-17T11:00:38.945Z,71.94
2019-01-17T11:03:11.615Z,71.89
2019-01-17T11:05:44.081Z,71.83
2019-01-17T11:08:14.101Z,71.96
2019-01-17T11:10:49.921Z,72.03
2019-01-17T11:13:38.015Z,72.06
2019-01-17T11:16:16.850Z,71.96
2019-01-17T11:19:04.883Z,71.93
2019-01-17T11:21:40.347Z,72.00
2019-01-17T11:24:41.870Z,72.08
2019-01-17T11:27:41.739Z,72.07
2019-01-17T11:30:14.391Z,72.22
2019-01-17T11:32:55.668Z,72.13
2019-01-17T11:35:31.159Z,72.07
2019-01-17T11:38:03.880Z,72.02
2019-01-17T11:40:39.853Z,71.92
2019-01-17T11:43:12.549Z,72.04
2019-01-17T11:45:45.398Z,72.04
2019-01-17T11:48:15.091Z,72.10
2019-01-17T11:50:51.020Z,72.23
2019-01-17T11:53:29.745Z,72.32
2019-01-17T11:56:11.042Z,72.20
2019-01-17T11:58:40.753Z,72.24
2019-01-17T12:01:24.016Z,72.28
2019-01-17T12:03:56.825Z,72.15
2019-01-17T12:06:22.940Z,72.00
2019-01-17T12:08:49.168Z,72.08
2019-01-17T12:11:15.055Z,72.13
2019-01-17T12:13:40.996Z,72.07
2019-01-17T12:16:07.269Z,71.96
2019-01-17T12:18:33.415Z,72.00
2019-01-17T12:20:59.499Z,72.06
2019-01-17T12:23:25.780Z,72.06
2019-01-17T12:25:51.847Z,72.09
2019-01-17T12:28:17.998Z,72.12
2019-01-17T12:30:44.004Z,72.23
2019-01-17T12:33:09.953Z,72.21
2019-01-17T12:35:35.847Z,72.20
2019-01-17T12:38:02.021Z,72.13
2019-01-17T12:40:28.058Z,72.25
2019-01-17T12:42:53.999Z,72.29
2019-01-17T12:45:20.358Z,72.08
2019-01-17T12:47:46.314Z,71.99
2019-01-17T12:50:14.362Z,72.02
2019-01-17T12:52:40.602Z,72.04
2019-01-17T12:55:07.930Z,72.14
2019-01-17T12:57:33.976Z,72.08
2019-01-17T13:00:00.270Z,72.00
2019-01-17T13:02:26.566Z,72.05
2019-01-17T13:04:52.480Z,72.11
2019-01-17T13:07:18.678Z,72.01
2019-01-17T13:09:44.630Z,72.11
2019-01-17T13:12:10.650Z,72.15
2019-01-17T13:14:37.027Z,72.03
2019-01-17T13:17:03.134Z,71.93
2019-01-17T13:19:29.310Z,72.04
2019-01-17T13:21:55.583Z,71.99
2019-01-17T13:24:21.670Z,72.12
2019-01-17T13:26:47.715Z,72.17
2019-01-17T13:29:13.990Z,72.25
2019-01-17T13:31:39.975Z,72.18
2019-01-17T13:34:06.036Z,72.17
2019-01-17T13:36:32.464Z,72.16
2019-01-17T13:38:58.454Z,72.17
2019-01-17T13:41:24.398Z,72.21
2019-01-17T13:43:50.575Z,72.23
2019-01-17T13:46:16.606Z,72.26
2019-01-17T13:48:42.663Z,72.18
2019-01-17T13:51:08.838Z,72.10
2019-01-17T13:53:34.868Z,72.09
2019-01-17T13:56:00.992Z,72.06
2019-01-17T13:58:27.281Z,72.12
2019-01-17T14:00:53.416Z,72.18
2019-01-17T14:03:19.641Z,72.12
2019-01-17T14:05:45.895Z,72.18
2019-01-17T14:08:11.834Z,72.32
2019-01-17T14:10:37.876Z,72.28
2019-01-17T14:13:04.261Z,72.25
2019-01-17T14:15:30.368Z,72.15
2019-01-17T14:17:56.360Z,72.08
2019-01-17T14:20:22.631Z,71.84
2019-01-17T14:22:48.726Z,71.84
2019-01-17T14:25:15.861Z,71.86
2019-01-17T14:27:42.135Z,71.87
2019-01-17T14:30:17.865Z,71.99
2019-01-17T14:32:44.038Z,72.20
2019-01-17T14:35:10.246Z,72.23
2019-01-17T14:37:36.420Z,72.21
2019-01-17T14:40:04.796Z,72.30
2019-01-17T14:42:30.719Z,72.10
2019-01-17T14:44:56.843Z,72.11
2019-01-17T14:47:22.973Z,72.01
2019-01-17T14:49:49.003Z,72.00
2019-01-17T14:52:14.963Z,72.13
2019-01-17T14:54:41.399Z,72.04
2019-01-17T14:57:07.623Z,71.96
2019-01-17T14:59:33.687Z,71.97
2019-01-17T15:01:59.770Z,72.00
2019-01-17T15:04:25.831Z,72.01
2019-01-17T15:06:51.835Z,72.03
2019-01-17T15:09:18.051Z,72.06
2019-01-17T15:11:44.088Z,72.08
2019-01-17T15:14:10.147Z,72.08
2019-01-17T15:16:36.332Z,71.98
2019-01-17T15:19:02.643Z,71.89
2019-01-17T15:21:28.604Z,71.95
2019-01-17T15:23:54.878Z,71.97
2019-01-17T15:26:20.811Z,72.00
2019-01-17T15:28:46.786Z,71.90
2019-01-17T15:31:13.078Z,71.91
2019-01-17T15:33:39.114Z,72.02
2019-01-17T15:36:05.358Z,72.01
2019-01-17T15:38:31.588Z,72.06
2019-01-17T15:40:57.576Z,72.12
2019-01-17T15:43:23.643Z,72.05
2019-01-17T15:45:50.037Z,72.01
2019-01-17T15:48:15.964Z,72.09
2019-01-17T15:50:41.997Z,72.05
2019-01-17T15:53:11.346Z,71.99
2019-01-17T15:55:37.466Z,71.99
2019-01-17T15:58:03.568Z,72.00
2019-01-17T16:00:30.066Z,72.04
2019-01-17T16:02:56.160Z,72.00
2019-01-17T16:05:22.642Z,71.92
2019-01-17T16:07:48.857Z,71.94
2019-01-17T16:10:15.393Z,71.87
2019-01-17T16:12:41.629Z,71.89
2019-01-17T16:15:10.826Z,71.93
2019-01-17T16:17:36.826Z,71.99
2019-01-17T16:20:06.489Z,72.01
2019-01-17T16:22:32.745Z,72.05
2019-01-17T16:24:58.653Z,72.06
2019-01-17T16:27:24.605Z,72.09
2019-01-17T16:29:50.859Z,72.13
2019-01-17T16:32:16.997Z,71.91
2019-01-17T16:34:42.946Z,71.85
2019-01-17T16:37:09.171Z,71.90
2019-01-17T16:39:35.190Z,71.95
2019-01-17T16:42:01.531Z,72.07
2019-01-17T16:44:28.156Z,72.10
2019-01-17T16:46:54.067Z,71.94
2019-01-17T16:49:19.996Z,71.82
2019-01-17T16:51:46.324Z,71.76
2019-01-17T16:54:12.389Z,71.82
2019-01-17T16:56:38.400Z,71.84
2019-01-17T16:59:04.570Z,71.78
2019-01-17T17:01:30.602Z,71.88
2019-01-17T17:03:56.604Z,71.79
2019-01-17T17:06:23.085Z,71.69
2019-01-17T17:08:49.016Z,71.71
2019-01-17T17:11:15.030Z,71.75
2019-01-17T17:13:41.103Z,71.85
2019-01-17T17:16:07.247Z,71.92
2019-01-17T17:18:33.164Z,71.95
2019-01-17T17:20:59.257Z,71.97
2019-01-17T17:23:25.302Z,72.06
2019-01-17T17:25:51.248Z,72.04
2019-01-17T17:28:17.367Z,71.95
2019-01-17T17:30:43.619Z,71.90
2019-01-17T17:33:09.627Z,71.81
2019-01-17T17:35:36.237Z,71.77
2019-01-17T17:38:02.372Z,71.88
2019-01-17T17:40:28.641Z,71.83
2019-01-17T17:42:54.855Z,71.83
2019-01-17T17:45:20.979Z,71.83
2019-01-17T17:47:46.999Z,71.82
2019-01-17T17:50:14.835Z,71.77
2019-01-17T17:52:41.168Z,71.80
2019-01-17T17:55:10.080Z,71.86
2019-01-17T17:57:36.365Z,71.80
2019-01-17T18:00:07.246Z,71.70
2019-01-17T18:02:33.712Z,71.72
2019-01-17T18:04:59.716Z,71.82
2019-01-17T18:07:25.630Z,71.81
2019-01-17T18:09:51.575Z,71.85
2019-01-17T18:12:17.659Z,71.99
2019-01-17T18:14:43.570Z,72.02
2019-01-17T18:17:09.788Z,71.96
2019-01-17T18:19:36.100Z,71.92
2019-01-17T18:22:02.249Z,71.87
2019-01-17T18:24:28.402Z,71.82
2019-01-17T18:26:54.525Z,71.85
2019-01-17T18:29:20.473Z,71.87
2019-01-17T18:31:46.509Z,71.86
2019-01-17T18:34:12.611Z,71.89
2019-01-17T18:36:38.637Z,71.84
2019-01-17T18:39:07.949Z,71.78
2019-01-17T18:41:34.178Z,71.73
2019-01-17T18:44:00.092Z,71.78
2019-01-17T18:46:27.028Z,71.79
2019-01-17T18:48:53.226Z,71.91
2019-01-17T18:51:19.357Z,71.89
2019-01-17T18:53:45.288Z,71.85
2019-01-17T18:56:11.590Z,71.68
2019-01-17T18:58:37.643Z,71.56
2019-01-17T19:01:03.870Z,71.71
2019-01-17T19:03:30.047Z,71.63
2019-01-17T19:05:56.070Z,71.73
2019-01-17T19:08:22.121Z,71.79
2019-01-17T19:10:48.431Z,71.76
2019-01-17T19:13:14.481Z,71.81
2019-01-17T19:15:40.746Z,71.77
2019-01-17T19:18:07.114Z,71.76
2019-01-17T19:20:33.215Z,71.68
2019-01-17T19:22:59.260Z,71.78
2019-01-17T19:25:25.438Z,71.71
2019-01-17T19:27:51.440Z,71.68
2019-01-17T19:30:22.586Z,71.82
2019-01-17T19:32:48.714Z,71.83
2019-01-17T19:35:14.934Z,71.88
2019-01-17T19:37:41.168Z,71.60
2019-01-17T19:40:15.609Z,71.55
2019-01-17T19:42:41.688Z,71.58
2019-01-17T19:45:09.923Z,71.70
2019-01-17T19:47:36.411Z,71.72
2019-01-17T19:50:06.131Z,71.73
2019-01-17T19:52:32.091Z,71.67
2019-01-17T19:54:58.262Z,71.46
2019-01-17T19:57:24.191Z,71.31
2019-01-17T19:59:50.836Z,71.35
2019-01-17T20:02:17.119Z,71.46
2019-01-17T20:04:43.177Z,71.58
2019-01-17T20:07:09.183Z,71.58
2019-01-17T20:09:35.374Z,71.51
2019-01-17T20:12:01.420Z,71.51
2019-01-17T20:14:27.334Z,71.56
2019-01-17T20:16:53.445Z,71.64
2019-01-17T20:19:19.582Z,71.51
2019-01-17T20:21:45.620Z,71.62
2019-01-17T20:24:11.716Z,71.63
2019-01-17T20:26:37.737Z,71.56
2019-01-17T20:29:03.886Z,71.52
2019-01-17T20:31:29.869Z,71.52
2019-01-17T20:33:55.830Z,71.57
2019-01-17T20:36:21.831Z,71.62
2019-01-17T20:38:48.044Z,71.71
2019-01-17T20:41:14.171Z,71.75
2019-01-17T20:43:40.120Z,71.68
2019-01-17T20:46:06.276Z,71.65
2019-01-17T20:48:32.305Z,71.70
2019-01-17T20:50:58.358Z,71.78
2019-01-17T20:53:24.515Z,71.67
2019-01-17T20:55:50.550Z,71.77
2019-01-17T20:58:18.467Z,71.76
2019-01-17T21:00:48.356Z,71.79
2019-01-17T21:03:15.929Z,71.70
2019-01-17T21:05:41.869Z,71.67
2019-01-17T21:08:08.187Z,71.57
2019-01-17T21:10:34.098Z,71.47
2019-01-17T21:13:00.126Z,71.52
2019-01-17T21:15:26.429Z,71.62
2019-01-17T21:17:52.348Z,71.63
2019-01-17T21:20:18.790Z,71.58
2019-01-17T21:22:45.069Z,71.47
2019-01-17T21:25:17.293Z,71.46
2019-01-17T21:27:43.313Z,71.56
2019-01-17T21:30:17.994Z,71.62
2019-01-17T21:32:43.991Z,71.56
2019-01-17T21:35:10.419Z,71.50
2019-01-17T21:37:36.749Z,71.51
2019-01-17T21:40:06.377Z,71.51
2019-01-17T21:42:32.406Z,71.49
2019-01-17T21:44:58.403Z,71.40
2019-01-17T21:47:24.380Z,71.50
2019-01-17T21:49:50.308Z,71.54
2019-01-17T21:52:16.471Z,71.50
2019-01-17T21:54:42.409Z,71.42
2019-01-17T21:57:08.429Z,71.50
2019-01-17T21:59:34.600Z,71.53
2019-01-17T22:02:00.537Z,71.52
2019-01-17T22:04:26.684Z,71.42
2019-01-17T22:06:52.871Z,71.38
2019-01-17T22:09:18.779Z,71.63
2019-01-17T22:11:44.687Z,71.65
2019-01-17T22:14:10.900Z,71.61
2019-01-17T22:16:36.823Z,71.61
2019-01-17T22:19:03.009Z,71.64
2019-01-17T22:21:31.088Z,71.61
2019-01-17T22:23:57.048Z,71.57
2019-01-17T22:26:22.954Z,71.60
2019-01-17T22:28:49.037Z,71.58
2019-01-17T22:31:15.048Z,71.50
2019-01-17T22:33:41.003Z,71.46
2019-01-17T22:36:07.184Z,71.52
2019-01-17T22:38:33.118Z,71.56
2019-01-17T22:40:59.166Z,71.47
2019-01-17T22:43:26.500Z,71.40
2019-01-17T22:45:52.559Z,71.35
2019-01-17T22:48:18.595Z,71.36
2019-01-17T22:50:44.698Z,71.47
2019-01-17T22:53:10.728Z,71.52
2019-01-17T22:55:36.671Z,71.51
2019-01-17T22:58:03.046Z,71.50
2019-01-17T23:00:40.419Z,71.46
2019-01-17T23:03:06.794Z,71.41
2019-01-17T23:05:32.703Z,71.38
2019-01-17T23:07:58.745Z,71.32
2019-01-17T23:10:25.006Z,71.26
2019-01-17T23:12:51.151Z,71.34
2019-01-17T23:15:17.172Z,71.41
2019-01-17T23:17:43.445Z,71.39
2019-01-17T23:20:09.872Z,71.30
2019-01-17T23:22:35.936Z,71.25
2019-01-17T23:25:03.518Z,71.23
2019-01-17T23:27:29.406Z,71.20
2019-01-17T23:29:55.340Z,71.02
2019-01-17T23:32:21.442Z,71.09
2019-01-17T23:34:47.403Z,71.06
2019-01-17T23:37:13.412Z,71.14
2019-01-17T23:39:39.409Z,71.21
2019-01-17T23:42:05.435Z,71.10
2019-01-17T23:44:31.502Z,71.10
2019-01-17T23:46:57.917Z,71.14
2019-01-17T23:49:24.061Z,71.23
2019-01-17T23:51:50.030Z,71.24
2019-01-17T23:54:16.176Z,71.24
2019-01-17T23:56:42.128Z,71.07
2019-01-17T23:59:08.041Z,71.00
